createdAt,value
2018-05-18T00:00:54.354Z,22.20
2018-05-18T00:03:21.841Z,20.90
2018-05-18T00:05:49.313Z,18.47
2018-05-18T00:08:16.790Z,31.50
2018-05-18T00:10:44.274Z,24.97
2018-05-18T00:13:11.751Z,21.70
2018-05-18T00:15:39.226Z,26.13
2018-05-18T00:18:07.496Z,21.27
2018-05-18T00:20:35.738Z,26.13
2018-05-18T00:23:03.200Z,26.60
2018-05-18T00:25:30.677Z,23.73
2018-05-18T00:27:58.929Z,19.97
2018-05-18T00:30:26.390Z,21.50
2018-05-18T00:32:53.881Z,20.27
2018-05-18T00:35:22.110Z,20.53
2018-05-18T00:37:49.604Z,26.23
2018-05-18T00:40:17.839Z,18.27
2018-05-18T00:42:45.339Z,20.47
2018-05-18T00:45:13.583Z,19.87
2018-05-18T00:47:41.043Z,21.20
2018-05-18T00:50:08.518Z,25.77
2018-05-18T00:52:35.985Z,29.23
2018-05-18T00:55:16.021Z,27.13
2018-05-18T00:57:43.497Z,31.30
2018-05-18T01:00:11.736Z,31.50
2018-05-18T01:02:39.214Z,20.73
2018-05-18T01:05:06.691Z,20.33
2018-05-18T01:07:34.191Z,26.57
2018-05-18T01:10:01.640Z,22.50
2018-05-18T01:12:29.101Z,29.47
2018-05-18T01:14:56.578Z,19.53
2018-05-18T01:17:24.053Z,24.10
2018-05-18T01:19:51.527Z,23.47
2018-05-18T01:22:19.753Z,19.47
2018-05-18T01:24:47.213Z,27.90
2018-05-18T01:27:14.695Z,27.30
2018-05-18T01:29:42.162Z,28.17
2018-05-18T01:32:09.646Z,30.23
2018-05-18T01:34:37.876Z,21.57
2018-05-18T01:37:05.354Z,32.80
2018-05-18T01:39:33.421Z,37.00
2018-05-18T01:42:00.903Z,30.97
2018-05-18T01:44:29.146Z,28.17
2018-05-18T01:46:56.620Z,31.87
2018-05-18T01:49:24.862Z,32.70
2018-05-18T01:51:52.349Z,34.70
2018-05-18T01:54:20.589Z,38.97
2018-05-18T01:56:48.069Z,33.67
2018-05-18T01:59:15.547Z,32.63
2018-05-18T02:01:43.775Z,43.67
2018-05-18T02:04:11.251Z,33.53
2018-05-18T02:06:38.721Z,31.93
2018-05-18T02:09:06.186Z,31.47
2018-05-18T02:11:34.434Z,41.10
2018-05-18T02:14:02.244Z,40.33
2018-05-18T02:16:29.731Z,37.67
2018-05-18T02:18:57.244Z,36.30
2018-05-18T02:21:24.750Z,36.50
2018-05-18T02:23:52.234Z,47.43
2018-05-18T02:26:19.709Z,29.17
2018-05-18T02:28:47.250Z,45.90
2018-05-18T02:31:14.715Z,43.10
2018-05-18T02:33:42.192Z,40.30
2018-05-18T02:36:10.447Z,46.40
2018-05-18T02:38:37.947Z,47.93
2018-05-18T02:41:05.428Z,43.30
2018-05-18T02:43:32.889Z,38.80
2018-05-18T02:46:00.376Z,41.10
2018-05-18T02:48:27.858Z,43.07
2018-05-18T02:50:56.079Z,47.40
2018-05-18T02:53:23.557Z,48.60
2018-05-18T02:55:51.019Z,53.30
2018-05-18T02:58:19.263Z,39.73
2018-05-18T03:00:46.729Z,55.90
2018-05-18T03:03:14.231Z,37.67
2018-05-18T03:05:41.699Z,41.37
2018-05-18T03:08:09.171Z,35.07
2018-05-18T03:10:36.647Z,38.43
2018-05-18T03:13:04.129Z,49.30
2018-05-18T03:15:31.583Z,46.93
2018-05-18T03:17:59.054Z,53.87
2018-05-18T03:20:26.516Z,43.77
2018-05-18T03:22:53.993Z,43.70
2018-05-18T03:25:22.226Z,37.77
2018-05-18T03:27:49.731Z,42.60
2018-05-18T03:30:17.984Z,41.83
2018-05-18T03:32:45.451Z,48.70
2018-05-18T03:35:12.954Z,51.00
2018-05-18T03:37:40.451Z,50.33
2018-05-18T03:40:07.903Z,52.50
2018-05-18T03:42:35.389Z,50.50
2018-05-18T03:45:02.874Z,51.10
2018-05-18T03:47:30.351Z,53.57
2018-05-18T03:49:57.828Z,45.63
2018-05-18T03:52:25.283Z,56.63
2018-05-18T03:54:52.786Z,52.70
2018-05-18T03:57:21.025Z,58.20
2018-05-18T03:59:48.510Z,51.43
2018-05-18T04:02:27.696Z,59.73
2018-05-18T04:05:06.885Z,67.73
2018-05-18T04:07:42.178Z,70.73
2018-05-18T04:10:09.665Z,67.60
2018-05-18T04:12:37.145Z,56.87
2018-05-18T04:15:05.407Z,62.80
2018-05-18T04:17:33.649Z,79.27
2018-05-18T04:20:01.117Z,60.63
2018-05-18T04:22:28.584Z,69.40
2018-05-18T04:24:56.072Z,68.30
2018-05-18T04:27:23.543Z,73.77
2018-05-18T04:29:51.049Z,77.17
2018-05-18T04:32:18.531Z,73.37
2018-05-18T04:34:46.007Z,71.03
2018-05-18T04:37:13.488Z,79.93
2018-05-18T04:39:40.965Z,68.40
2018-05-18T04:42:08.461Z,63.60
2018-05-18T04:44:36.713Z,76.80
2018-05-18T04:47:04.197Z,67.10
2018-05-18T04:49:32.427Z,68.47
2018-05-18T04:51:59.901Z,69.27
2018-05-18T04:54:27.384Z,73.07
2018-05-18T04:56:55.618Z,83.97
2018-05-18T04:59:23.098Z,65.90
2018-05-18T05:01:50.563Z,68.97
2018-05-18T05:04:18.024Z,70.53
2018-05-18T05:06:46.272Z,76.87
2018-05-18T05:09:13.753Z,74.67
2018-05-18T05:11:41.218Z,66.50
2018-05-18T05:14:09.451Z,75.77
2018-05-18T05:16:36.938Z,76.93
2018-05-18T05:19:04.431Z,71.60
2018-05-18T05:21:31.901Z,75.40
2018-05-18T05:23:59.386Z,78.50
2018-05-18T05:26:26.860Z,81.13
2018-05-18T05:28:54.334Z,78.33
2018-05-18T05:31:22.602Z,78.97
2018-05-18T05:33:50.070Z,80.10
2018-05-18T05:36:18.330Z,73.70
2018-05-18T05:38:45.809Z,79.40
2018-05-18T05:41:14.065Z,72.27
2018-05-18T05:43:41.547Z,84.73
2018-05-18T05:46:09.787Z,70.23
2018-05-18T05:48:37.255Z,78.20
2018-05-18T05:51:04.720Z,83.90
2018-05-18T05:53:32.977Z,81.87
2018-05-18T05:56:00.470Z,90.33
2018-05-18T05:58:28.776Z,71.27
2018-05-18T06:00:56.306Z,68.40
2018-05-18T06:03:24.520Z,64.87
2018-05-18T06:05:51.999Z,67.80
2018-05-18T06:08:19.468Z,64.80
2018-05-18T06:10:47.006Z,67.70
2018-05-18T06:13:14.493Z,78.33
2018-05-18T06:15:41.973Z,72.03
2018-05-18T06:18:10.208Z,60.00
2018-05-18T06:20:37.703Z,64.33
2018-05-18T06:23:05.190Z,59.27
2018-05-18T06:25:32.670Z,66.00
2018-05-18T06:28:00.145Z,71.70
2018-05-18T06:30:27.619Z,70.17
2018-05-18T06:32:55.885Z,55.57
2018-05-18T06:35:24.058Z,56.10
2018-05-18T06:37:52.492Z,61.40
2018-05-18T06:40:20.565Z,55.23
2018-05-18T06:42:48.049Z,45.30
2018-05-18T06:45:15.520Z,46.90
2018-05-18T06:47:42.993Z,64.23
2018-05-18T06:50:11.245Z,44.33
2018-05-18T06:52:38.740Z,51.60
2018-05-18T06:55:06.202Z,41.97
2018-05-18T06:57:33.682Z,46.13
2018-05-18T07:00:01.148Z,40.37
2018-05-18T07:02:28.646Z,47.67
2018-05-18T07:04:56.115Z,44.07
2018-05-18T07:07:24.504Z,44.33
2018-05-18T07:09:52.020Z,46.93
2018-05-18T07:12:19.504Z,43.83
2018-05-18T07:14:47.765Z,44.47
2018-05-18T07:17:15.256Z,39.73
2018-05-18T07:19:42.717Z,41.70
2018-05-18T07:22:10.208Z,45.87
2018-05-18T07:24:37.666Z,35.13
2018-05-18T07:27:05.162Z,42.10
2018-05-18T07:29:32.646Z,32.40
2018-05-18T07:32:00.130Z,31.43
2018-05-18T07:34:27.662Z,39.47
2018-05-18T07:36:55.161Z,30.97
2018-05-18T07:39:23.417Z,37.83
2018-05-18T07:41:50.891Z,23.50
2018-05-18T07:44:18.363Z,24.33
2018-05-18T07:46:45.859Z,39.87
2018-05-18T07:49:13.326Z,27.83
2018-05-18T07:51:40.810Z,28.53
2018-05-18T07:54:08.293Z,25.23
2018-05-18T07:56:35.821Z,29.53
2018-05-18T07:59:03.336Z,22.93
2018-05-18T08:01:31.585Z,19.80
2018-05-18T08:03:59.079Z,23.20
2018-05-18T08:06:27.202Z,21.77
2018-05-18T08:08:54.715Z,30.70
2018-05-18T08:11:22.967Z,22.60
2018-05-18T08:13:51.449Z,27.33
2018-05-18T08:16:18.971Z,42.27
2018-05-18T08:18:46.449Z,27.77
2018-05-18T08:21:13.930Z,35.37
2018-05-18T08:23:41.469Z,37.30
2018-05-18T08:26:09.748Z,37.50
2018-05-18T08:28:48.874Z,39.13
2018-05-18T08:31:16.352Z,43.20
2018-05-18T08:33:44.623Z,44.20
2018-05-18T08:36:12.138Z,46.33
2018-05-18T08:38:39.620Z,47.07
2018-05-18T08:41:07.116Z,44.33
2018-05-18T08:43:34.613Z,46.53
2018-05-18T08:46:02.099Z,48.77
2018-05-18T08:48:29.805Z,46.33
2018-05-18T08:50:57.266Z,42.80
2018-05-18T08:53:25.639Z,46.13
2018-05-18T08:55:53.146Z,49.00
2018-05-18T08:58:20.652Z,44.70
2018-05-18T09:00:48.164Z,45.10
2018-05-18T09:03:15.645Z,47.30
2018-05-18T09:05:43.203Z,52.43
2018-05-18T09:08:11.422Z,47.10
2018-05-18T09:10:38.913Z,50.90
2018-05-18T09:13:06.467Z,44.10
2018-05-18T09:15:33.960Z,49.90
2018-05-18T09:18:01.454Z,44.93
2018-05-18T09:20:28.990Z,51.07
2018-05-18T09:22:56.472Z,50.50
2018-05-18T09:25:25.195Z,39.47
2018-05-18T09:27:52.688Z,42.30
2018-05-18T09:30:20.979Z,46.03
2018-05-18T09:32:48.497Z,38.57
2018-05-18T09:35:15.971Z,44.30
2018-05-18T09:37:44.243Z,48.17
2018-05-18T09:40:12.597Z,50.03
2018-05-18T09:42:40.110Z,45.17
2018-05-18T09:45:07.589Z,46.50
2018-05-18T09:47:35.067Z,44.43
2018-05-18T09:50:02.562Z,42.10
2018-05-18T09:52:30.814Z,45.20
2018-05-18T09:54:58.376Z,42.00
2018-05-18T09:57:25.866Z,48.13
2018-05-18T09:59:53.399Z,41.40
2018-05-18T10:02:20.882Z,41.37
2018-05-18T10:04:48.371Z,46.53
2018-05-18T10:07:15.914Z,44.60
2018-05-18T10:09:43.375Z,47.30
2018-05-18T10:12:10.869Z,41.60
2018-05-18T10:14:38.371Z,44.17
2018-05-18T10:17:05.878Z,47.03
2018-05-18T10:19:33.374Z,36.87
2018-05-18T10:22:00.874Z,47.73
2018-05-18T10:24:28.412Z,40.07
2018-05-18T10:26:56.687Z,48.90
2018-05-18T10:29:24.158Z,42.50
2018-05-18T10:31:51.705Z,42.93
2018-05-18T10:34:19.212Z,45.30
2018-05-18T10:36:46.702Z,40.40
2018-05-18T10:39:14.991Z,38.50
2018-05-18T10:41:42.477Z,41.70
2018-05-18T10:44:10.753Z,42.30
2018-05-18T10:46:38.240Z,39.93
2018-05-18T10:49:05.712Z,38.07
2018-05-18T10:51:34.011Z,37.60
2018-05-18T10:54:01.473Z,38.43
2018-05-18T10:56:29.017Z,34.33
2018-05-18T10:58:57.284Z,44.60
2018-05-18T11:01:24.782Z,35.40
2018-05-18T11:03:52.279Z,39.57
2018-05-18T11:06:19.772Z,49.37
2018-05-18T11:08:47.272Z,41.43
2018-05-18T11:11:14.781Z,42.30
2018-05-18T11:13:43.820Z,48.47
2018-05-18T11:16:16.104Z,37.17
2018-05-18T11:21:18.298Z,35.73
2018-05-18T11:23:45.826Z,38.27
2018-05-18T11:26:14.658Z,32.43
2018-05-18T11:28:42.144Z,36.90
2018-05-18T11:31:09.631Z,36.60
2018-05-18T11:33:37.182Z,36.73
2018-05-18T11:36:05.048Z,35.13
2018-05-18T11:38:32.563Z,37.33
2018-05-18T11:41:00.076Z,38.13
2018-05-18T11:43:27.565Z,40.00
2018-05-18T11:45:55.081Z,36.33
2018-05-18T11:48:22.657Z,39.00
2018-05-18T11:50:51.436Z,32.07
2018-05-18T11:53:18.970Z,37.67
2018-05-18T11:55:46.450Z,29.83
2018-05-18T11:58:13.956Z,36.57
2018-05-18T12:00:41.498Z,35.37
2018-05-18T12:03:12.729Z,32.83
2018-05-18T12:05:40.258Z,41.10
2018-05-18T12:08:08.327Z,34.90
2018-05-18T12:10:35.922Z,32.33
2018-05-18T12:13:03.449Z,33.30
2018-05-18T12:15:31.799Z,32.07
2018-05-18T12:18:01.235Z,27.70
2018-05-18T12:20:29.512Z,31.43
2018-05-18T12:22:57.006Z,33.57
2018-05-18T12:25:24.560Z,33.83
2018-05-18T12:27:52.192Z,31.33
2018-05-18T12:30:19.762Z,30.73
2018-05-18T12:32:48.507Z,29.23
2018-05-18T12:35:17.867Z,32.70
2018-05-18T12:37:46.352Z,30.97
2018-05-18T12:40:15.469Z,34.20
2018-05-18T12:42:43.081Z,31.53
2018-05-18T12:45:10.605Z,24.43
2018-05-18T12:47:38.837Z,27.77
2018-05-18T12:50:06.351Z,23.60
2018-05-18T12:52:34.970Z,27.60
2018-05-18T12:55:03.579Z,33.33
2018-05-18T12:57:31.080Z,29.67
2018-05-18T12:59:58.570Z,32.43
2018-05-18T13:02:26.082Z,23.90
2018-05-18T13:04:54.331Z,26.73
2018-05-18T13:07:21.837Z,30.67
2018-05-18T13:09:49.333Z,28.30
2018-05-18T13:12:16.827Z,25.57
2018-05-18T13:14:44.753Z,28.90
2018-05-18T13:17:19.243Z,29.97
2018-05-18T13:19:46.767Z,25.70
2018-05-18T13:22:14.688Z,29.20
2018-05-18T13:24:43.285Z,30.80
2018-05-18T13:27:10.799Z,25.60
2018-05-18T13:29:38.373Z,29.50
2018-05-18T13:32:06.119Z,27.90
2018-05-18T13:34:33.689Z,30.27
2018-05-18T13:37:01.153Z,23.57
2018-05-18T13:39:28.653Z,24.07
2018-05-18T13:41:56.166Z,25.20
2018-05-18T13:44:24.447Z,27.43
2018-05-18T13:46:51.930Z,25.20
2018-05-18T13:49:20.467Z,24.30
2018-05-18T13:51:48.022Z,29.30
2018-05-18T13:54:15.541Z,32.90
2018-05-18T13:56:43.039Z,26.97
2018-05-18T13:59:11.360Z,24.50
2018-05-18T14:01:39.585Z,25.50
2018-05-18T14:04:07.873Z,24.70
2018-05-18T14:06:36.111Z,21.83
2018-05-18T14:09:03.649Z,20.13
2018-05-18T14:11:31.712Z,24.27
2018-05-18T14:14:00.155Z,22.80
2018-05-18T14:16:28.501Z,25.63
2018-05-18T14:18:56.269Z,20.77
2018-05-18T14:21:23.782Z,22.40
2018-05-18T14:23:51.269Z,27.07
2018-05-18T14:26:18.861Z,23.00
2018-05-18T14:28:47.219Z,24.50
2018-05-18T14:31:14.712Z,29.53
2018-05-18T14:33:42.209Z,28.37
2018-05-18T14:36:09.725Z,31.73
2018-05-18T14:38:37.214Z,27.33
2018-05-18T14:41:04.718Z,38.07
2018-05-18T14:43:32.192Z,34.00
2018-05-18T14:45:59.738Z,33.70
2018-05-18T14:48:27.272Z,26.17
2018-05-18T14:50:54.785Z,31.37
2018-05-18T14:53:22.301Z,31.67
2018-05-18T14:55:51.295Z,28.47
2018-05-18T14:58:18.823Z,28.03
2018-05-18T15:00:46.304Z,22.80
2018-05-18T15:03:15.292Z,28.77
2018-05-18T15:05:42.899Z,23.97
2018-05-18T15:08:10.668Z,33.77
2018-05-18T15:10:38.204Z,26.23
2018-05-18T15:13:05.710Z,25.80
2018-05-18T15:15:33.191Z,24.03
2018-05-18T15:18:00.668Z,28.03
2018-05-18T15:20:28.168Z,26.53
2018-05-18T15:22:55.687Z,30.40
2018-05-18T15:25:24.003Z,27.37
2018-05-18T15:27:51.483Z,28.57
2018-05-18T15:30:19.066Z,21.97
2018-05-18T15:32:46.509Z,23.77
2018-05-18T15:35:14.060Z,29.23
2018-05-18T15:37:41.553Z,21.73
2018-05-18T15:40:09.040Z,23.40
2018-05-18T15:42:37.520Z,23.20
2018-05-18T15:45:06.136Z,24.03
2018-05-18T15:47:33.626Z,23.43
2018-05-18T15:50:01.135Z,21.40
2018-05-18T15:52:28.676Z,25.03
2018-05-18T15:54:56.177Z,23.80
2018-05-18T15:57:23.724Z,26.23
2018-05-18T15:59:51.228Z,23.57
2018-05-18T16:02:18.745Z,25.33
2018-05-18T16:04:47.182Z,25.17
2018-05-18T16:07:14.691Z,24.77
2018-05-18T16:09:42.228Z,21.40
2018-05-18T16:12:11.213Z,21.07
2018-05-18T16:14:39.295Z,23.30
2018-05-18T16:17:07.379Z,18.33
2018-05-18T16:19:35.451Z,26.00
2018-05-18T16:22:03.356Z,20.77
2018-05-18T16:24:33.429Z,18.70
2018-05-18T16:27:00.936Z,20.40
2018-05-18T16:29:34.634Z,19.87
2018-05-18T16:32:04.949Z,15.10
2018-05-18T16:34:36.290Z,18.03
2018-05-18T16:37:04.765Z,19.73
2018-05-18T16:39:32.297Z,27.53
2018-05-18T16:41:59.800Z,34.10
2018-05-18T16:44:27.332Z,19.83
2018-05-18T16:46:54.825Z,21.37
2018-05-18T16:49:22.380Z,20.10
2018-05-18T16:51:49.902Z,17.57
2018-05-18T16:54:18.265Z,16.23
2018-05-18T16:56:45.765Z,19.00
2018-05-18T16:59:13.252Z,17.00
2018-05-18T17:01:41.242Z,17.13
2018-05-18T17:04:08.755Z,12.80
2018-05-18T17:06:36.305Z,19.67
2018-05-18T17:09:05.435Z,20.10
2018-05-18T17:11:32.931Z,20.27
2018-05-18T17:14:01.058Z,16.70
2018-05-18T17:16:29.608Z,16.20
2018-05-18T17:18:57.129Z,16.10
2018-05-18T17:21:24.649Z,15.30
2018-05-18T17:23:53.018Z,15.57
2018-05-18T17:26:20.499Z,15.53
2018-05-18T17:28:48.035Z,14.63
2018-05-18T17:31:16.232Z,20.53
2018-05-18T17:33:43.703Z,15.50
2018-05-18T17:36:11.227Z,17.17
2018-05-18T17:38:38.705Z,16.13
2018-05-18T17:41:06.240Z,20.00
2018-05-18T17:43:35.407Z,20.90
2018-05-18T17:46:02.885Z,15.83
2018-05-18T17:48:30.419Z,20.53
2018-05-18T17:50:57.920Z,16.60
2018-05-18T17:53:25.445Z,17.23
2018-05-18T17:55:52.938Z,19.17
2018-05-18T17:58:20.476Z,15.67
2018-05-18T18:00:47.979Z,17.03
2018-05-18T18:03:15.482Z,20.23
2018-05-18T18:05:42.973Z,17.93
2018-05-18T18:08:10.492Z,17.33
2018-05-18T18:10:38.757Z,13.37
2018-05-18T18:13:06.275Z,18.53
2018-05-18T18:15:34.588Z,15.50
2018-05-18T18:18:02.097Z,14.70
2018-05-18T18:20:30.369Z,18.00
2018-05-18T18:22:57.859Z,14.03
2018-05-18T18:25:25.394Z,21.43
2018-05-18T18:27:52.875Z,19.83
2018-05-18T18:30:20.381Z,19.60
2018-05-18T18:32:47.856Z,12.97
2018-05-18T18:35:15.429Z,21.60
2018-05-18T18:37:42.942Z,17.87
2018-05-18T18:40:10.434Z,17.97
2018-05-18T18:42:37.982Z,14.50
2018-05-18T18:45:05.457Z,18.37
2018-05-18T18:47:33.711Z,15.83
2018-05-18T18:50:02.128Z,17.00
2018-05-18T18:52:30.791Z,31.80
2018-05-18T18:54:58.290Z,14.03
2018-05-18T18:57:25.804Z,18.60
2018-05-18T18:59:53.319Z,18.57
2018-05-18T19:02:20.828Z,23.37
2018-05-18T19:04:48.735Z,20.83
2018-05-18T19:07:16.237Z,19.33
2018-05-18T19:09:44.494Z,22.40
2018-05-18T19:12:11.979Z,16.10
2018-05-18T19:14:39.517Z,20.13
2018-05-18T19:17:07.627Z,26.63
2018-05-18T19:19:35.904Z,20.50
2018-05-18T19:22:04.142Z,17.07
2018-05-18T19:24:31.661Z,15.63
2018-05-18T19:26:59.186Z,17.70
2018-05-18T19:29:26.674Z,16.90
2018-05-18T19:31:54.552Z,13.10
2018-05-18T19:34:22.064Z,17.40
2018-05-18T19:36:49.585Z,22.87
2018-05-18T19:39:17.077Z,11.17
2018-05-18T19:41:44.557Z,16.70
2018-05-18T19:44:12.802Z,14.20
2018-05-18T19:46:40.341Z,11.23
2018-05-18T19:49:07.872Z,18.57
2018-05-18T19:51:35.382Z,18.07
2018-05-18T19:54:02.863Z,20.13
2018-05-18T19:56:31.130Z,24.17
2018-05-18T19:58:58.646Z,15.07
2018-05-18T20:01:26.124Z,12.93
2018-05-18T20:03:54.398Z,14.53
2018-05-18T20:06:21.946Z,17.13
2018-05-18T20:08:49.423Z,11.77
2018-05-18T20:11:16.910Z,15.37
2018-05-18T20:13:44.506Z,13.40
2018-05-18T20:16:12.672Z,20.40
2018-05-18T20:18:40.158Z,19.87
2018-05-18T20:21:07.639Z,12.33
2018-05-18T20:23:35.154Z,15.40
2018-05-18T20:26:02.635Z,17.30
2018-05-18T20:28:30.122Z,23.70
2018-05-18T20:30:58.377Z,22.73
2018-05-18T20:33:25.864Z,12.33
2018-05-18T20:35:53.332Z,9.67
2018-05-18T20:38:20.813Z,15.13
2018-05-18T20:40:48.332Z,19.40
2018-05-18T20:43:15.797Z,21.53
2018-05-18T20:45:43.261Z,19.03
2018-05-18T20:48:10.771Z,16.93
2018-05-18T20:50:38.242Z,16.83
2018-05-18T20:53:05.745Z,21.27
2018-05-18T20:55:33.245Z,24.40
2018-05-18T20:58:00.703Z,14.37
2018-05-18T21:00:28.197Z,21.77
2018-05-18T21:02:56.435Z,17.37
2018-05-18T21:05:23.938Z,14.00
2018-05-18T21:07:51.416Z,18.53
2018-05-18T21:10:18.877Z,18.83
2018-05-18T21:12:46.372Z,17.20
2018-05-18T21:15:13.849Z,21.20
2018-05-18T21:17:41.357Z,19.37
2018-05-18T21:20:08.829Z,16.33
2018-05-18T21:22:36.316Z,19.47
2018-05-18T21:25:03.812Z,19.07
2018-05-18T21:27:31.299Z,19.40
2018-05-18T21:29:58.807Z,20.80
2018-05-18T21:32:26.311Z,21.47
2018-05-18T21:34:53.792Z,16.43
2018-05-18T21:37:21.302Z,17.20
2018-05-18T21:39:49.045Z,21.60
2018-05-18T21:42:16.538Z,24.50
2018-05-18T21:44:44.035Z,17.13
2018-05-18T21:47:11.522Z,24.83
2018-05-18T21:49:39.019Z,23.70
2018-05-18T21:52:06.477Z,30.80
2018-05-18T21:54:33.977Z,24.23
2018-05-18T21:57:01.462Z,19.37
2018-05-18T21:59:28.935Z,18.77
2018-05-18T22:01:56.434Z,28.60
2018-05-18T22:04:23.908Z,24.83
2018-05-18T22:06:51.396Z,18.30
2018-05-18T22:09:18.895Z,18.33
2018-05-18T22:11:46.395Z,13.83
2018-05-18T22:14:14.703Z,16.87
2018-05-18T22:16:42.911Z,19.60
2018-05-18T22:19:10.393Z,21.37
2018-05-18T22:21:38.625Z,14.43
2018-05-18T22:24:06.111Z,20.57
2018-05-18T22:26:33.611Z,23.47
2018-05-18T22:29:01.079Z,16.53
2018-05-18T22:31:28.560Z,16.37
2018-05-18T22:33:56.039Z,14.30
2018-05-18T22:36:23.530Z,13.60
2018-05-18T22:38:51.021Z,17.90
2018-05-18T22:41:18.504Z,16.63
2018-05-18T22:43:45.992Z,17.07
2018-05-18T22:46:14.238Z,16.13
2018-05-18T22:48:41.721Z,18.13
2018-05-18T22:51:09.989Z,18.80
2018-05-18T22:53:38.230Z,16.40
2018-05-18T22:56:05.722Z,17.10
2018-05-18T22:58:33.195Z,18.43
2018-05-18T23:01:01.425Z,17.60
2018-05-18T23:03:28.921Z,16.83
2018-05-18T23:05:57.157Z,18.23
2018-05-18T23:08:24.615Z,22.40
2018-05-18T23:10:52.112Z,14.80
2018-05-18T23:13:20.351Z,15.17
2018-05-18T23:15:47.829Z,16.03
2018-05-18T23:18:15.309Z,16.10
2018-05-18T23:20:43.529Z,19.40
2018-05-18T23:23:11.016Z,19.17
2018-05-18T23:25:38.516Z,20.10
2018-05-18T23:28:06.006Z,23.03
2018-05-18T23:30:33.496Z,15.40
2018-05-18T23:33:00.967Z,23.47
2018-05-18T23:35:29.232Z,21.33
2018-05-18T23:37:57.455Z,24.27
2018-05-18T23:40:24.955Z,18.33
2018-05-18T23:42:52.440Z,16.43
2018-05-18T23:45:19.913Z,20.77
2018-05-18T23:47:47.406Z,28.10
2018-05-18T23:50:14.871Z,20.50
2018-05-18T23:52:42.371Z,19.83
2018-05-18T23:55:09.851Z,27.50
2018-05-18T23:57:37.364Z,24.47
